Flight Track Log - Related Links

Times and Time Zones

All times are in EDT time to prevent confusion due to time zone crossing. See the N350BS flight status page for this flight to view local times or setup timezone preferences in your user account.

Time Position Orientation Groundspeed Altitude Reporting Facility
EDT Latitude Longitude Course Direction KTS MPH feet Rate Location/Type
Wed 03:33:45 PM 39.3667 -84.5500 270° West 174 200 1,700  Level Cincinnati TRACON
Wed 03:35:03 PM 39.3667 -84.6167 270° West 156 180 4,200 2,000 Climbing Cincinnati TRACON
Wed 03:36:03 PM 39.3500 -84.6667 247° West 161 185 6,300 2,000 Climbing Cincinnati TRACON
Wed 03:36:57 PM 39.3000 -84.6667 180° South 168 193 8,000 2,000 Climbing Cincinnati TRACON
Wed 03:37:57 PM 39.2667 -84.6833 201° Southwest 171 197 10,100 1,728 Climbing Cincinnati TRACON
Wed 03:43:12 PM 39.0030 -84.6990 201° Southwest 192 221 18,800 1,450 Climbing FlightAware ADS-B
Wed 03:43:57 PM 38.9690 -84.6820 159° South 192 221 18,800  Level FlightAware ADS-B
Wed 03:44:37 PM 38.9410 -84.6680 159° South 192 221 18,800  Level FlightAware ADS-B
Wed 03:45:17 PM 38.9130 -84.6550 160° South 192 221 18,800  Level FlightAware ADS-B
Wed 03:45:57 PM 38.8850 -84.6410 159° South 192 221 18,800  Level FlightAware ADS-B
Wed 03:46:47 PM 38.8490 -84.6230 159° South 192 221 18,800 2,966 Level FlightAware ADS-B
Wed 03:47:26 PM 38.7806 -84.6167 159° South 197 227 23,200 3,149 Climbing Indianapolis Center
Wed 03:48:28 PM 38.7289 -84.6019 167° South 191 220 24,100 399 Climbing Indianapolis Center
Wed 03:54:27 PM 38.3830 -84.5100 167° South 235 270 26,000 282 Climbing FlightAware ADS-B
Wed 03:55:12 PM 38.3360 -84.5030 173° South 237 273 26,000  Level FlightAware ADS-B
Wed 03:55:52 PM 38.2890 -84.4960 173° South 238 274 26,000  Level FlightAware ADS-B
Wed 03:56:32 PM 38.2450 -84.4890 173° South 238 274 26,000  Level FlightAware ADS-B
Wed 03:57:17 PM 38.1980 -84.4830 178° South 236 272 26,000  Level FlightAware ADS-B
Wed 03:57:52 PM 38.1580 -84.4770 173° South 235 270 26,000  Level FlightAware ADS-B
Wed 03:58:32 PM 38.1170 -84.4710 173° South 235 270 26,000  Level FlightAware ADS-B
Wed 03:59:22 PM 38.0600 -84.4620 173° South 236 272 26,000  Level FlightAware ADS-B
Wed 04:00:02 PM 38.0160 -84.4560 174° South 238 274 26,000  Level FlightAware ADS-B
Wed 04:00:47 PM 37.9710 -84.4490 173° South 238 274 26,000  Level FlightAware ADS-B
Wed 04:01:27 PM 37.9240 -84.4420 173° South 236 272 26,000  Level FlightAware ADS-B
Wed 04:02:12 PM 37.8740 -84.4350 174° South 238 274 26,000  Level FlightAware ADS-B
Wed 04:02:47 PM 37.8370 -84.4300 174° South 238 274 26,000  Level FlightAware ADS-B
Wed 04:03:32 PM 37.7940 -84.4230 173° South 237 273 26,000  Level FlightAware ADS-B
Wed 04:04:17 PM 37.7410 -84.4160 174° South 238 274 26,000  Level FlightAware ADS-B
Wed 04:04:57 PM 37.6940 -84.4090 173° South 239 275 26,000  Level FlightAware ADS-B
Wed 04:05:37 PM 37.6500 -84.4020 173° South 238 274 26,000  Level FlightAware ADS-B
Wed 04:06:39 PM 37.5807 -84.3922 174° South 233 268 26,000  Level FlightAware ADS-B
Wed 04:07:11 PM 37.5467 -84.3873 173° South 233 268 26,000  Level FlightAware ADS-B
Wed 04:10:52 PM 37.3088 -84.3529 173° South 241 277 26,000  Level FlightAware ADS-B
Wed 04:11:26 PM 37.2713 -84.3475 173° South 243 280 26,000  Level FlightAware ADS-B
Wed 04:11:57 PM 37.2370 -84.3426 174° South 243 280 26,000  Level FlightAware ADS-B
Wed 04:12:27 PM 37.2034 -84.3377 173° South 242 278 26,000  Level FlightAware ADS-B
Wed 04:13:01 PM 37.1661 -84.3323 173° South 242 278 26,000  Level FlightAware ADS-B
Wed 04:14:04 PM 37.0949 -84.3222 174° South 243 280 26,000  Level FlightAware ADS-B
Wed 04:14:55 PM 37.0378 -84.3140 173° South 246 283 26,000  Level FlightAware ADS-B
Wed 04:15:32 PM 36.9952 -84.3080 174° South 246 283 26,000  Level FlightAware ADS-B
Wed 04:16:03 PM 36.9603 -84.3025 173° South 246 283 26,000  Level FlightAware ADS-B
Wed 04:16:36 PM 36.9240 -84.2897 164° South 249 287 26,000  Level FlightAware ADS-B
Wed 04:17:07 PM 36.8893 -84.2769 164° South 251 289 26,000  Level FlightAware ADS-B
Wed 04:17:45 PM 36.8470 -84.2613 164° South 252 290 26,000  Level FlightAware ADS-B
Wed 04:18:15 PM 36.8137 -84.2491 164° South 254 292 26,000  Level FlightAware ADS-B
Wed 04:18:45 PM 36.7792 -84.2362 163° South 255 293 26,000  Level FlightAware ADS-B
Wed 04:19:12 PM 36.7490 -84.2249 163° South 255 293 26,000  Level FlightAware ADS-B
Wed 04:19:25 PM 36.7344 -84.2192 163° South 252 290 26,000  Level FlightAware ADS-B
Wed 04:20:08 PM 36.6878 -84.2002 162° South 247 284 26,000  Level FlightAware ADS-B
Wed 04:20:37 PM 36.6563 -84.1877 162° South 244 281 26,000  Level FlightAware ADS-B
Wed 04:21:05 PM 36.6263 -84.1759 162° South 244 281 26,000  Level FlightAware ADS-B
Wed 04:21:35 PM 36.5940 -84.1630 162° South 243 280 26,000  Level FlightAware ADS-B
Wed 04:21:54 PM 36.5740 -84.1553 163° South 243 280 26,000  Level FlightAware ADS-B
Wed 04:22:42 PM 36.5221 -84.1376 165° South 242 278 26,000  Level FlightAware ADS-B
Wed 04:22:51 PM 36.5122 -84.1358 172° South 243 280 26,000  Level FlightAware ADS-B
Wed 04:23:31 PM 36.4665 -84.1311 175° South 246 283 26,000  Level FlightAware ADS-B
Wed 04:24:01 PM 36.4321 -84.1277 175° South 245 282 26,000  Level FlightAware ADS-B
Wed 04:24:34 PM 36.3950 -84.1239 175° South 246 283 26,000  Level FlightAware ADS-B
Wed 04:25:04 PM 36.3605 -84.1203 175° South 249 287 26,000  Level FlightAware ADS-B
Wed 04:25:35 PM 36.3257 -84.1167 175° South 252 290 26,000  Level FlightAware ADS-B
Wed 04:26:05 PM 36.2905 -84.1131 175° South 255 293 26,000  Level FlightAware ADS-B
Wed 04:26:35 PM 36.2551 -84.1094 175° South 255 293 26,000  Level FlightAware ADS-B
Wed 04:27:05 PM 36.2194 -84.1057 175° South 255 293 26,000  Level FlightAware ADS-B
Wed 04:27:35 PM 36.1837 -84.1020 175° South 256 295 26,000  Level FlightAware ADS-B
Wed 04:28:08 PM 36.1456 -84.0982 175° South 255 293 26,000  Level FlightAware ADS-B
Wed 04:28:38 PM 36.1100 -84.0945 175° South 256 295 26,000  Level FlightAware ADS-B
Wed 04:29:09 PM 36.0734 -84.0907 175° South 257 296 26,000  Level FlightAware ADS-B
Wed 04:29:39 PM 36.0378 -84.0871 175° South 257 296 26,000  Level FlightAware ADS-B
Wed 04:30:09 PM 36.0018 -84.0833 175° South 258 297 26,000  Level FlightAware ADS-B
Wed 04:30:25 PM 35.9827 -84.0813 175° South 257 296 26,000  Level FlightAware ADS-B
Wed 04:30:56 PM 35.9459 -84.0776 175° South 257 296 26,000  Level FlightAware ADS-B
Wed 04:31:26 PM 35.9100 -84.0739 175° South 257 296 26,000  Level FlightAware ADS-B
Wed 04:31:56 PM 35.8745 -84.0703 175° South 257 296 26,000  Level FlightAware ADS-B
Wed 04:32:27 PM 35.8383 -84.0667 175° South 258 297 26,000  Level FlightAware ADS-B
Wed 04:32:33 PM 35.8315 -84.0660 175° South 258 297 26,000  Level FlightAware ADS-B
Wed 04:33:03 PM 35.7952 -84.0622 175° South 258 297 26,000  Level FlightAware ADS-B
Wed 04:33:32 PM 35.7603 -84.0586 175° South 259 298 26,000  Level FlightAware ADS-B
Wed 04:33:56 PM 35.7320 -84.0557 175° South 260 299 26,000 -218 Level FlightAware ADS-B
Wed 04:34:27 PM 35.6949 -84.0520 175° South 270 311 25,800 -689 Descending FlightAware ADS-B
Wed 04:34:57 PM 35.6564 -84.0481 175° South 281 323 25,300 -871 Descending FlightAware ADS-B
Wed 04:35:29 PM 35.6140 -84.0438 175° South 288 331 24,900 -857 Descending FlightAware ADS-B
Wed 04:36:00 PM 35.5719 -84.0395 175° South 291 335 24,400 -871 Descending FlightAware ADS-B
Wed 04:36:31 PM 35.5315 -84.0355 175° South 290 334 24,000 -381 Descending FlightAware ADS-B
Wed 04:37:03 PM 35.4893 -84.0311 175° South 278 320 24,000  Level FlightAware ADS-B
Wed 04:37:33 PM 35.4512 -84.0272 175° South 270 311 24,000  Level FlightAware ADS-B
Wed 04:38:04 PM 35.4133 -84.0234 175° South 267 307 24,000  Level FlightAware ADS-B
Wed 04:38:40 PM 35.3692 -84.0212 178° South 264 304 24,000  Level FlightAware ADS-B
Wed 04:39:00 PM 35.3445 -84.0206 179° South 265 305 24,000 -154 Level FlightAware ADS-B
Wed 04:39:19 PM 35.3205 -84.0216 182° South 270 311 23,900 -450 Descending FlightAware ADS-B
Wed 04:39:40 PM 35.2942 -84.0238 184° South 276 318 23,700 -588 Descending FlightAware ADS-B
Wed 04:40:10 PM 35.2555 -84.0275 184° South 280 322 23,400 -689 Descending FlightAware ADS-B
Wed 04:40:41 PM 35.2161 -84.0308 184° South 281 323 23,000 -387 Descending FlightAware ADS-B
Wed 04:41:12 PM 35.1768 -84.0338 184° South 265 305 23,000  Level FlightAware ADS-B
Wed 04:41:49 PM 35.1313 -84.0372 183° South 262 302 23,000  Level FlightAware ADS-B
Wed 04:42:21 PM 35.0935 -84.0400 183° South 261 300 23,000  Level FlightAware ADS-B
Wed 04:42:44 PM 35.0655 -84.0429 185° South 256 295 23,000  Level FlightAware ADS-B
Wed 04:43:04 PM 35.0427 -84.0454 185° South 256 295 23,000  Level FlightAware ADS-B
Wed 04:43:34 PM 35.0070 -84.0508 187° South 253 291 23,000  Level FlightAware ADS-B
Wed 04:43:53 PM 34.9850 -84.0542 187° South 251 289 23,000  Level FlightAware ADS-B
Wed 04:44:23 PM 34.9508 -84.0595 187° South 248 285 23,000  Level FlightAware ADS-B
Wed 04:44:47 PM 34.9237 -84.0636 187° South 248 285 23,000  Level FlightAware ADS-B
Wed 04:45:14 PM 34.8933 -84.0678 186° South 247 284 23,000 -453 Level FlightAware ADS-B
Wed 04:45:40 PM 34.8631 -84.0722 187° South 252 290 22,600 -1,071 Descending FlightAware ADS-B
Wed 04:46:10 PM 34.8277 -84.0791 189° South 258 297 22,000 -1,277 Descending FlightAware ADS-B
Wed 04:46:27 PM 34.8075 -84.0832 189° South 264 304 21,600 -1,235 Descending FlightAware ADS-B
Wed 04:46:44 PM 34.7869 -84.0862 187° South 269 310 21,300 -1,111 Descending FlightAware ADS-B
Wed 04:46:54 PM 34.7743 -84.0862 180° South 274 315 21,100 -1,125 Descending FlightAware ADS-B
Wed 04:47:00 PM 34.7670 -84.0851 173° South 275 316 21,000 -1,333 Descending FlightAware ADS-B
Wed 04:47:21 PM 34.7401 -84.0788 169° South 280 322 20,500 -1,647 Descending FlightAware ADS-B
Wed 04:47:51 PM 34.7011 -84.0708 170° South 287 330 19,600 -1,900 Descending FlightAware ADS-B
Wed 04:48:21 PM 34.6608 -84.0626 170° South 294 338 18,600 -2,066 Descending FlightAware ADS-B
Wed 04:48:52 PM 34.6200 -84.0541 170° South 295 339 17,500 -2,262 Descending FlightAware ADS-B
Wed 04:49:22 PM 34.5791 -84.0455 170° South 297 342 16,300 -2,375 Descending FlightAware ADS-B
Wed 04:49:40 PM 34.5541 -84.0402 170° South 297 342 15,600 -2,314 Descending FlightAware ADS-B
Wed 04:50:32 PM 34.4890 -84.0260 170° South 276 318 13,600 -2,283 Descending FlightAware ADS-B
Wed 04:51:12 PM 34.4400 -84.0160 170° South 264 304 12,100 -2,218 Descending FlightAware ADS-B
Wed 04:53:17 PM 34.3000 -83.9870 170° South 232 267 7,500 -2,361 Descending FlightAware ADS-B
Wed 04:53:47 PM 34.2650 -83.9790 169° South 232 267 6,000 -2,000 Descending FlightAware ADS-B
Wed 04:54:02 PM 34.2490 -83.9760 171° South 210 242 6,000  Level FlightAware ADS-B
Wed 04:54:27 PM 34.2230 -83.9700 169° South 210 242 6,000  Level FlightAware ADS-B
Wed 04:54:42 PM 34.2090 -83.9670 170° South 201 231 6,000  Level FlightAware ADS-B
Wed 04:55:12 PM 34.1810 -83.9620 172° South 210 242 6,000  Level FlightAware ADS-B
Wed 04:55:37 PM 34.1560 -83.9560 169° South 210 242 6,000  Level FlightAware ADS-B
Wed 04:55:57 PM 34.1370 -83.9520 170° South 201 231 6,000  Level FlightAware ADS-B
Wed 04:56:32 PM 34.1040 -83.9460 171° South 211 243 6,000 -120 Level FlightAware ADS-B
Wed 04:56:47 PM 34.0890 -83.9420 168° South 215 247 5,900 -533 Descending FlightAware ADS-B
Wed 04:57:17 PM 34.0590 -83.9360 171° South 211 243 5,600 -655 Descending FlightAware ADS-B
Wed 04:57:42 PM 34.0340 -83.9310 171° South 211 243 5,300 -545 Descending FlightAware ADS-B
Wed 04:58:12 PM 34.0050 -83.9250 170° South 216 249 5,100 -545 Descending FlightAware ADS-B
Wed 04:58:37 PM 33.9790 -83.9190 169° South 215 247 4,800 -600 Descending FlightAware ADS-B
Wed 04:58:52 PM 33.9640 -83.9160 171° South 215 247 4,700 -533 Descending FlightAware ADS-B
Wed 04:59:22 PM 33.9330 -83.9100 171° South 214 246 4,400 -545 Descending FlightAware ADS-B
Wed 04:59:47 PM 33.9120 -83.9060 171° South 214 246 4,200 -600 Descending FlightAware ADS-B
Wed 05:00:12 PM 33.8830 -83.8990 169° South 215 247 3,900 -700 Descending FlightAware ADS-B
Wed 05:00:47 PM 33.8440 -83.8910 170° South 216 249 3,500 -400 Descending FlightAware ADS-B
Wed 05:01:12 PM 33.8200 -83.8850 168° South 210 242 3,500  Level FlightAware ADS-B
Wed 05:01:37 PM 33.7960 -83.8790 168° South 207 238 3,500  Level FlightAware ADS-B
Wed 05:02:02 PM 33.7760 -83.8740 168° South 207 238 3,500 -400 Level FlightAware ADS-B
Wed 05:03:07 PM 33.7150 -83.8460 159° South 209 241 2,900 -600 Descending FlightAware ADS-B
Wed 05:03:22 PM 33.7020 -83.8370 150° Southeast 208 239 2,700 -750 Descending FlightAware ADS-B
Wed 05:03:47 PM 33.6820 -83.8240 152° Southeast 191 220 2,400 -400 Descending FlightAware ADS-B
Wed 05:04:22 PM 33.6570 -83.8070 150° Southeast 186 214 2,300 -171 Descending FlightAware ADS-B

Login

Don't have an account? Register now (free) for customized features, flight alerts, and more!